createdAt,value
2022-10-23T00:01:22.933Z,100417.75
2022-10-23T00:03:55.595Z,100410.84
2022-10-23T00:06:24.070Z,100415.81
2022-10-23T00:08:51.822Z,100405.25
2022-10-23T00:11:23.789Z,100400.97
2022-10-23T00:13:52.721Z,100397.97
2022-10-23T00:16:20.422Z,100395.44
2022-10-23T00:18:48.161Z,100390.09
2022-10-23T00:21:18.443Z,100389.25
2022-10-23T00:23:47.057Z,100374.59
2022-10-23T00:26:15.977Z,100368.56
2022-10-23T00:28:44.295Z,100372.78
2022-10-23T00:31:12.578Z,100377.84
2022-10-23T00:33:40.897Z,100383.53
2022-10-23T00:36:11.041Z,100383.53
2022-10-23T00:38:40.676Z,100388.75
2022-10-23T00:41:10.563Z,100374.69
2022-10-23T00:43:57.212Z,100368.25
2022-10-23T00:46:25.166Z,100383.97
2022-10-23T00:48:53.136Z,100389.28
2022-10-23T00:51:21.358Z,100374.00
2022-10-23T00:54:12.708Z,100366.41
2022-10-23T00:56:44.851Z,100363.28
2022-10-23T00:59:13.871Z,100360.16
2022-10-23T01:01:42.396Z,100351.03
2022-10-23T01:04:11.019Z,100354.31
2022-10-23T01:06:44.701Z,100353.19
2022-10-23T01:09:19.589Z,100358.41
2022-10-23T01:11:54.123Z,100355.63
2022-10-23T01:14:30.354Z,100355.63
2022-10-23T01:17:05.347Z,100344.66
2022-10-23T01:19:48.899Z,100352.81
2022-10-23T01:22:40.820Z,100352.94
2022-10-23T01:25:23.673Z,100339.53
2022-10-23T01:27:57.137Z,100352.41
2022-10-23T01:30:24.962Z,100348.06
2022-10-23T01:32:56.823Z,100363.06
2022-10-23T01:35:28.900Z,100357.88
2022-10-23T01:38:04.955Z,100355.47
2022-10-23T01:40:38.686Z,100356.56
2022-10-23T01:43:13.789Z,100350.41
2022-10-23T01:45:44.647Z,100346.03
2022-10-23T01:48:16.655Z,100342.78
2022-10-23T01:50:46.819Z,100337.72
2022-10-23T01:53:14.661Z,100323.06
2022-10-23T01:55:43.997Z,100316.44
2022-10-23T01:58:14.557Z,100317.66
2022-10-23T02:00:45.529Z,100327.84
2022-10-23T02:03:16.992Z,100325.56
2022-10-23T02:05:45.361Z,100325.25
2022-10-23T02:08:13.728Z,100318.47
2022-10-23T02:10:48.409Z,100315.94
2022-10-23T02:13:25.322Z,100314.50
2022-10-23T02:16:01.797Z,100327.81
2022-10-23T02:18:39.116Z,100315.44
2022-10-23T02:21:11.027Z,100312.56
2022-10-23T02:23:42.597Z,100318.59
2022-10-23T02:26:16.845Z,100321.75
2022-10-23T02:28:50.341Z,100317.75
2022-10-23T02:31:22.409Z,100313.28
2022-10-23T02:33:50.647Z,100314.38
2022-10-23T02:36:20.011Z,100312.44
2022-10-23T02:38:47.777Z,100305.28
2022-10-23T02:41:27.379Z,100302.84
2022-10-23T02:44:09.476Z,100298.50
2022-10-23T02:46:49.396Z,100291.63
2022-10-23T02:49:24.486Z,100292.13
2022-10-23T02:52:01.499Z,100299.41
2022-10-23T02:54:40.947Z,100294.31
2022-10-23T02:57:20.077Z,100281.03
2022-10-23T03:00:01.895Z,100275.47
2022-10-23T03:02:36.856Z,100276.69
2022-10-23T03:05:07.864Z,100281.19
2022-10-23T03:07:36.119Z,100282.03
2022-10-23T03:10:03.921Z,100272.22
2022-10-23T03:12:31.624Z,100278.53
2022-10-23T03:15:00.655Z,100275.25
2022-10-23T03:17:28.466Z,100271.50
2022-10-23T03:19:56.162Z,100270.78
2022-10-23T03:22:24.026Z,100275.25
2022-10-23T03:24:51.741Z,100264.38
2022-10-23T03:27:19.619Z,100268.72
2022-10-23T03:29:47.309Z,100265.94
2022-10-23T03:32:16.409Z,100269.91
2022-10-23T03:34:44.202Z,100266.88
2022-10-23T03:37:11.901Z,100268.56
2022-10-23T03:39:39.561Z,100256.22
2022-10-23T03:42:07.360Z,100259.88
2022-10-23T03:44:35.229Z,100267.00
2022-10-23T03:47:02.944Z,100274.75
2022-10-23T03:49:31.978Z,100290.00
2022-10-23T03:51:59.637Z,100287.56
2022-10-23T03:54:29.750Z,100288.69
2022-10-23T03:56:57.960Z,100293.28
2022-10-23T03:59:25.691Z,100290.75
2022-10-23T04:01:53.514Z,100291.00
2022-10-23T04:04:21.319Z,100277.09
2022-10-23T04:06:50.362Z,100271.63
2022-10-23T04:09:18.305Z,100273.06
2022-10-23T04:11:46.050Z,100259.03
2022-10-23T04:14:15.006Z,100264.63
2022-10-23T04:16:42.695Z,100262.56
2022-10-23T04:19:10.429Z,100269.34
2022-10-23T04:21:38.135Z,100268.25
2022-10-23T04:24:07.984Z,100256.88
2022-10-23T04:26:35.788Z,100250.94
2022-10-23T04:29:03.494Z,100253.59
2022-10-23T04:31:31.241Z,100255.53
2022-10-23T04:33:58.995Z,100259.19
2022-10-23T04:36:26.694Z,100267.28
2022-10-23T04:38:54.441Z,100260.53
2022-10-23T04:41:23.470Z,100261.47
2022-10-23T04:43:51.138Z,100258.38
2022-10-23T04:46:19.078Z,100255.94
2022-10-23T04:48:46.732Z,100266.91
2022-10-23T04:51:14.467Z,100269.25
2022-10-23T04:53:42.188Z,100261.84
2022-10-23T04:56:14.766Z,100274.91
2022-10-23T04:58:43.914Z,100289.78
2022-10-23T05:01:12.256Z,100278.56
2022-10-23T05:03:40.191Z,100275.41
2022-10-23T05:06:08.054Z,100275.16
2022-10-23T05:08:36.478Z,100276.00
2022-10-23T05:11:04.297Z,100275.03
2022-10-23T05:13:31.972Z,100254.44
2022-10-23T05:16:01.062Z,100265.59
2022-10-23T05:18:34.586Z,100259.78
2022-10-23T05:21:06.402Z,100251.69
2022-10-23T05:23:36.420Z,100236.66
2022-10-23T05:26:04.813Z,100228.69
2022-10-23T05:28:32.533Z,100228.69
2022-10-23T05:31:05.996Z,100230.63
2022-10-23T05:33:35.597Z,100235.81
2022-10-23T05:36:03.941Z,100235.44
2022-10-23T05:38:34.951Z,100232.53
2022-10-23T05:41:03.168Z,100233.25
2022-10-23T05:43:31.479Z,100235.81
2022-10-23T05:46:00.869Z,100237.75
2022-10-23T05:48:34.711Z,100230.28
2022-10-23T05:51:06.861Z,100224.34
2022-10-23T05:53:36.226Z,100225.91
2022-10-23T05:56:07.413Z,100220.56
2022-10-23T05:58:35.401Z,100223.63
2022-10-23T06:01:07.953Z,100220.22
2022-10-23T06:03:35.923Z,100223.81
2022-10-23T06:06:03.647Z,100220.44
2022-10-23T06:08:32.400Z,100209.34
2022-10-23T06:11:00.141Z,100204.53
2022-10-23T06:13:27.835Z,100208.63
2022-10-23T06:15:55.571Z,100215.63
2022-10-23T06:18:24.578Z,100213.69
2022-10-23T06:20:52.295Z,100208.34
2022-10-23T06:23:20.052Z,100208.47
2022-10-23T06:25:53.531Z,100196.38
2022-10-23T06:28:21.202Z,100193.72
2022-10-23T06:30:49.170Z,100199.44
2022-10-23T06:33:16.947Z,100198.34
2022-10-23T06:35:46.067Z,100217.19
2022-10-23T06:38:14.048Z,100212.47
2022-10-23T06:40:41.828Z,100206.28
2022-10-23T06:43:09.587Z,100211.75
2022-10-23T06:45:37.284Z,100208.47
2022-10-23T06:48:05.429Z,100201.81
2022-10-23T06:50:33.121Z,100205.72
2022-10-23T06:53:02.239Z,100204.22
2022-10-23T06:55:30.958Z,100203.97
2022-10-23T06:57:58.766Z,100192.59
2022-10-23T07:00:27.204Z,100203.97
2022-10-23T07:02:54.854Z,100207.09
2022-10-23T07:05:22.517Z,100214.00
2022-10-23T07:07:50.250Z,100210.81
2022-10-23T07:10:19.552Z,100215.63
2022-10-23T07:12:47.750Z,100215.97
2022-10-23T07:15:15.935Z,100208.44
2022-10-23T07:17:43.724Z,100213.25
2022-10-23T07:20:11.431Z,100212.03
2022-10-23T07:22:39.171Z,100208.84
2022-10-23T07:25:07.908Z,100216.31
2022-10-23T07:27:39.384Z,100216.63
2022-10-23T07:30:08.334Z,100214.44
2022-10-23T07:32:36.007Z,100192.69
2022-10-23T07:35:03.784Z,100203.00
2022-10-23T07:37:31.792Z,100211.16
2022-10-23T07:39:59.816Z,100214.44
2022-10-23T07:42:27.514Z,100222.16
2022-10-23T07:44:56.543Z,100209.28
2022-10-23T07:47:24.313Z,100221.94
2022-10-23T07:49:52.130Z,100224.91
2022-10-23T07:52:19.805Z,100213.84
2022-10-23T07:54:47.554Z,100215.13
2022-10-23T07:57:15.180Z,100205.47
2022-10-23T07:59:42.874Z,100198.63
2022-10-23T08:02:13.934Z,100197.81
2022-10-23T08:04:41.794Z,100206.97
2022-10-23T08:07:09.525Z,100209.56
2022-10-23T08:09:38.083Z,100197.47
2022-10-23T08:12:06.115Z,100191.03
2022-10-23T08:14:33.860Z,100181.06
2022-10-23T08:19:31.585Z,100179.13
2022-10-23T08:21:59.253Z,100185.41
2022-10-23T08:24:26.995Z,100179.50
2022-10-23T08:26:54.778Z,100168.31
2022-10-23T08:29:22.609Z,100169.97
2022-10-23T08:31:50.285Z,100161.56
2022-10-23T08:34:18.832Z,100181.59
2022-10-23T08:36:47.892Z,100170.78
2022-10-23T08:39:15.654Z,100174.91
2022-10-23T08:41:48.169Z,100177.53
2022-10-23T08:44:23.358Z,100172.78
2022-10-23T08:47:00.182Z,100167.50
2022-10-23T08:49:48.859Z,100168.69
2022-10-23T08:52:24.435Z,100160.94
2022-10-23T08:55:05.334Z,100160.59
2022-10-23T08:57:41.458Z,100160.22
2022-10-23T09:00:16.156Z,100156.81
2022-10-23T09:02:46.597Z,100152.84
2022-10-23T09:05:18.216Z,100155.59
2022-10-23T09:08:01.552Z,100155.41
2022-10-23T09:10:56.623Z,100152.22
2022-10-23T09:13:58.876Z,100166.53
2022-10-23T09:16:41.753Z,100153.69
2022-10-23T09:19:13.217Z,100149.84
2022-10-23T09:21:40.988Z,100137.97
2022-10-23T09:24:18.053Z,100123.72
2022-10-23T09:26:48.294Z,100118.88
2022-10-23T09:29:23.543Z,100121.03
2022-10-23T09:31:52.773Z,100121.38
2022-10-23T09:34:23.783Z,100128.44
2022-10-23T09:36:53.680Z,100123.22
2022-10-23T09:39:29.185Z,100128.78
2022-10-23T09:41:57.254Z,100126.94
2022-10-23T09:44:26.608Z,100118.53
2022-10-23T09:46:56.003Z,100111.44
2022-10-23T09:49:26.046Z,100105.06
2022-10-23T09:52:05.355Z,100105.75
2022-10-23T09:54:38.189Z,100113.50
2022-10-23T09:57:21.513Z,100117.16
2022-10-23T09:59:53.903Z,100122.03
2022-10-23T10:02:28.467Z,100113.31
2022-10-23T10:04:56.674Z,100105.91
2022-10-23T10:07:26.059Z,100098.19
2022-10-23T10:09:56.776Z,100097.19
2022-10-23T10:12:40.424Z,100090.78
2022-10-23T10:15:19.943Z,100100.56
2022-10-23T10:17:58.111Z,100111.13
2022-10-23T10:20:47.108Z,100112.13
2022-10-23T10:23:24.488Z,100117.53
2022-10-23T10:26:03.696Z,100105.75
2022-10-23T10:28:45.722Z,100096.84
2022-10-23T10:31:20.704Z,100109.44
2022-10-23T10:34:01.742Z,100111.97
2022-10-23T10:36:42.185Z,100100.19
2022-10-23T10:39:20.219Z,100095.50
2022-10-23T10:42:04.038Z,100081.38
2022-10-23T10:44:48.008Z,100070.59
2022-10-23T10:47:22.779Z,100070.19
2022-10-23T10:50:00.815Z,100052.22
2022-10-23T10:52:36.904Z,100060.50
2022-10-23T10:55:16.032Z,100057.31
2022-10-23T10:57:50.618Z,100065.56
2022-10-23T11:00:20.807Z,100075.66
2022-10-23T11:02:50.726Z,100085.94
2022-10-23T11:05:33.231Z,100083.41
2022-10-23T11:08:08.082Z,100083.41
2022-10-23T11:10:39.211Z,100072.13
2022-10-23T11:13:24.528Z,100067.56
2022-10-23T11:15:54.823Z,100058.97
2022-10-23T11:18:27.404Z,100049.28
2022-10-23T11:21:08.145Z,100049.97
2022-10-23T11:23:54.329Z,100030.66
2022-10-23T11:26:34.932Z,100030.72
2022-10-23T11:29:21.927Z,100038.91
2022-10-23T11:32:03.239Z,100020.00
2022-10-23T11:34:51.886Z,100017.63
2022-10-23T11:37:20.914Z,100030.44
2022-10-23T11:40:02.477Z,100043.16
2022-10-23T11:42:33.267Z,100031.38
2022-10-23T11:45:02.375Z,100018.00
2022-10-23T11:47:38.962Z,100020.56
2022-10-23T11:50:24.744Z,100016.63
2022-10-23T11:53:19.907Z,100011.94
2022-10-23T11:56:04.209Z,100002.94
2022-10-23T11:58:46.819Z,99992.94
2022-10-23T12:01:27.080Z,99981.56
2022-10-23T12:03:58.638Z,99971.88
2022-10-23T12:06:29.021Z,99965.81
2022-10-23T12:09:01.506Z,99978.38
2022-10-23T12:11:40.496Z,99967.94
2022-10-23T12:14:27.574Z,99965.44
2022-10-23T12:16:57.521Z,99969.38
2022-10-23T12:19:27.012Z,99961.66
2022-10-23T12:21:58.390Z,99956.06
2022-10-23T12:24:39.792Z,99949.81
2022-10-23T12:27:24.550Z,99956.06
2022-10-23T12:30:13.772Z,99942.72
2022-10-23T12:33:09.213Z,99940.81
2022-10-23T12:36:22.598Z,99935.22
2022-10-23T12:38:50.878Z,99931.03
2022-10-23T12:41:23.653Z,99922.72
2022-10-23T12:43:55.211Z,99922.69
2022-10-23T12:46:35.553Z,99917.06
2022-10-23T12:49:13.960Z,99926.66
2022-10-23T12:51:41.973Z,99927.28
2022-10-23T12:54:17.232Z,99918.09
2022-10-23T12:56:45.568Z,99905.13
2022-10-23T12:59:18.266Z,99922.88
2022-10-23T13:01:50.421Z,99917.06
2022-10-23T13:04:29.446Z,99910.16
2022-10-23T13:06:59.532Z,99899.94
2022-10-23T13:09:31.741Z,99893.06
2022-10-23T13:12:01.751Z,99884.53
2022-10-23T13:14:33.102Z,99889.94
2022-10-23T13:17:02.323Z,99890.59
2022-10-23T13:19:31.759Z,99883.06
2022-10-23T13:22:00.407Z,99877.81
2022-10-23T13:24:30.752Z,99870.09
2022-10-23T13:26:59.521Z,99872.00
2022-10-23T13:29:30.718Z,99862.00
2022-10-23T13:31:58.619Z,99859.13
2022-10-23T13:34:28.527Z,99858.91
2022-10-23T13:37:00.767Z,99843.88
2022-10-23T13:39:31.779Z,99850.16
2022-10-23T13:42:10.183Z,99847.59
2022-10-23T13:44:38.087Z,99841.53
2022-10-23T13:47:06.373Z,99835.25
2022-10-23T13:49:34.109Z,99827.53
2022-10-23T13:52:03.136Z,99841.00
2022-10-23T13:54:31.226Z,99844.53
2022-10-23T13:56:58.940Z,99820.13
2022-10-23T13:59:26.663Z,99825.69
2022-10-23T14:01:54.552Z,99809.00
2022-10-23T14:04:23.676Z,99808.97
2022-10-23T14:06:54.780Z,99814.75
2022-10-23T14:09:23.845Z,99819.91
2022-10-23T14:11:51.560Z,99809.88
2022-10-23T14:14:19.292Z,99803.19
2022-10-23T14:16:47.054Z,99811.91
2022-10-23T14:19:14.780Z,99809.78
2022-10-23T14:21:42.531Z,99800.81
2022-10-23T14:24:10.504Z,99802.63
2022-10-23T14:26:39.618Z,99803.41
2022-10-23T14:29:10.263Z,99803.13
2022-10-23T14:31:41.704Z,99794.34
2022-10-23T14:34:10.040Z,99787.22
2022-10-23T14:36:49.460Z,99791.16
2022-10-23T14:39:18.851Z,99794.88
2022-10-23T14:41:47.973Z,99789.91
2022-10-23T14:44:15.768Z,99790.00
2022-10-23T14:46:43.604Z,99789.63
2022-10-23T14:49:11.825Z,99793.72
2022-10-23T14:51:39.606Z,99785.88
2022-10-23T14:54:08.737Z,99780.91
2022-10-23T14:56:39.408Z,99783.59
2022-10-23T14:59:10.670Z,99775.44
2022-10-23T15:01:43.757Z,99772.06
2022-10-23T15:04:14.972Z,99766.63
2022-10-23T15:06:43.379Z,99772.72
2022-10-23T15:09:11.483Z,99770.56
2022-10-23T15:11:39.294Z,99769.50
2022-10-23T15:14:09.128Z,99764.25
2022-10-23T15:16:41.434Z,99759.22
2022-10-23T15:19:12.196Z,99757.13
2022-10-23T15:21:43.193Z,99757.69
2022-10-23T15:24:10.961Z,99755.56
2022-10-23T15:26:39.600Z,99753.28
2022-10-23T15:29:09.392Z,99745.56
2022-10-23T15:31:46.205Z,99737.41
2022-10-23T15:34:16.829Z,99731.56
2022-10-23T15:36:47.132Z,99727.78
2022-10-23T15:39:18.533Z,99732.25
2022-10-23T15:41:47.281Z,99730.16
2022-10-23T15:44:18.680Z,99719.75
2022-10-23T15:46:47.076Z,99714.66
2022-10-23T15:49:15.371Z,99710.03
2022-10-23T15:51:43.877Z,99699.78
2022-10-23T15:54:16.631Z,99704.31
2022-10-23T15:56:44.737Z,99696.13
2022-10-23T15:59:12.612Z,99696.91
2022-10-23T16:01:42.244Z,99700.34
2022-10-23T16:04:10.364Z,99699.25
2022-10-23T16:06:38.491Z,99696.94
2022-10-23T16:09:06.459Z,99681.53
2022-10-23T16:11:37.001Z,99686.66
2022-10-23T16:14:05.663Z,99684.53
2022-10-23T16:16:34.010Z,99687.59
2022-10-23T16:19:05.098Z,99679.25
2022-10-23T16:21:34.581Z,99666.31
2022-10-23T16:24:03.674Z,99661.50
2022-10-23T16:26:32.123Z,99661.25
2022-10-23T16:29:01.592Z,99666.19
2022-10-23T16:31:29.628Z,99661.31
2022-10-23T16:33:59.017Z,99653.81
2022-10-23T16:36:31.468Z,99658.53
2022-10-23T16:38:59.454Z,99667.38
2022-10-23T16:41:27.271Z,99670.25
2022-10-23T16:43:55.163Z,99670.44
2022-10-23T16:46:23.694Z,99660.88
2022-10-23T16:48:54.063Z,99645.47
2022-10-23T16:51:24.268Z,99647.31
2022-10-23T16:53:54.421Z,99663.84
2022-10-23T16:56:24.185Z,99667.75
2022-10-23T16:58:52.233Z,99671.47
2022-10-23T17:01:22.639Z,99675.53
2022-10-23T17:03:52.464Z,99683.81
2022-10-23T17:06:22.294Z,99680.66
2022-10-23T17:08:50.852Z,99688.72
2022-10-23T17:11:22.048Z,99699.84
2022-10-23T17:13:55.255Z,99705.22
2022-10-23T17:16:28.458Z,99727.31
2022-10-23T17:18:57.901Z,99752.25
2022-10-23T17:21:26.056Z,99745.56
2022-10-23T17:23:54.513Z,99776.91
2022-10-23T17:26:23.837Z,99771.41
2022-10-23T17:28:51.825Z,99787.06
2022-10-23T17:31:22.204Z,99787.06
2022-10-23T17:33:52.501Z,99811.06
2022-10-23T17:36:22.693Z,99834.28
2022-10-23T17:38:51.090Z,99861.69
2022-10-23T17:41:21.924Z,99879.53
2022-10-23T17:43:51.767Z,99876.94
2022-10-23T17:46:19.880Z,99882.34
2022-10-23T17:48:48.001Z,99877.13
2022-10-23T17:51:18.885Z,99871.44
2022-10-23T17:53:49.384Z,99882.03
2022-10-23T17:56:20.094Z,99878.81
2022-10-23T17:58:48.256Z,99876.50
2022-10-23T18:01:19.808Z,99852.34
2022-10-23T18:03:47.803Z,99840.44
2022-10-23T18:06:19.166Z,99839.31
2022-10-23T18:08:47.818Z,99808.56
2022-10-23T18:11:17.316Z,99777.47
2022-10-23T18:13:45.628Z,99774.97
2022-10-23T18:16:14.132Z,99763.84
2022-10-23T18:18:48.109Z,99775.44
2022-10-23T18:21:17.421Z,99761.00
2022-10-23T18:23:45.892Z,99756.59
2022-10-23T18:26:17.191Z,99783.50
2022-10-23T18:28:45.948Z,99797.81
2022-10-23T18:31:15.631Z,99814.94
2022-10-23T18:33:45.175Z,99824.88
2022-10-23T18:36:18.634Z,99826.53
2022-10-23T18:38:46.952Z,99832.94
2022-10-23T18:41:14.922Z,99818.66
2022-10-23T18:43:44.708Z,99827.72
2022-10-23T18:46:13.592Z,99830.59
2022-10-23T18:48:41.955Z,99833.66
2022-10-23T18:51:16.644Z,99834.16
2022-10-23T18:53:47.084Z,99818.72
2022-10-23T18:56:15.943Z,99827.50
2022-10-23T18:58:43.875Z,99838.78
2022-10-23T19:01:11.925Z,99824.34
2022-10-23T19:03:40.001Z,99827.06
2022-10-23T19:06:08.525Z,99819.03
2022-10-23T19:08:39.330Z,99807.31
2022-10-23T19:11:08.454Z,99810.69
2022-10-23T19:13:39.178Z,99803.34
2022-10-23T19:16:11.540Z,99810.41
2022-10-23T19:18:41.606Z,99821.84
2022-10-23T19:21:09.619Z,99807.75
2022-10-23T19:23:41.287Z,99806.91
2022-10-23T19:26:11.911Z,99803.56
2022-10-23T19:28:42.398Z,99799.50
2022-10-23T19:31:11.370Z,99805.41
2022-10-23T19:33:39.860Z,99804.91
2022-10-23T19:36:12.640Z,99801.41
2022-10-23T19:38:43.402Z,99803.41
2022-10-23T19:41:11.514Z,99810.97
2022-10-23T19:43:39.552Z,99814.84
2022-10-23T19:46:11.034Z,99816.69
2022-10-23T19:48:42.435Z,99809.47
2022-10-23T19:51:10.347Z,99817.03
2022-10-23T19:53:38.107Z,99802.78
2022-10-23T19:56:09.406Z,99797.53
2022-10-23T19:58:37.246Z,99794.00
2022-10-23T20:01:09.918Z,99800.56
2022-10-23T20:03:37.540Z,99794.88
2022-10-23T20:06:05.290Z,99798.56
2022-10-23T20:08:35.074Z,99789.00
2022-10-23T20:11:02.886Z,99792.88
2022-10-23T20:13:32.244Z,99803.75
2022-10-23T20:16:00.232Z,99806.44
2022-10-23T20:18:27.870Z,99819.19
2022-10-23T20:20:55.656Z,99816.50
2022-10-23T20:23:23.365Z,99810.47
2022-10-23T20:25:51.112Z,99820.38
2022-10-23T20:28:18.929Z,99821.22
2022-10-23T20:30:48.463Z,99820.53
2022-10-23T20:33:16.324Z,99815.19
2022-10-23T20:35:44.500Z,99813.50
2022-10-23T20:38:12.342Z,99820.53
2022-10-23T20:40:40.130Z,99818.03
2022-10-23T20:43:07.951Z,99821.88
2022-10-23T20:45:35.717Z,99821.88
2022-10-23T20:48:05.053Z,99827.94
2022-10-23T20:50:35.119Z,99844.19
2022-10-23T20:53:02.856Z,99846.88
2022-10-23T20:55:30.697Z,99846.88
2022-10-23T20:57:58.484Z,99845.22
2022-10-23T21:00:26.914Z,99856.09
2022-10-23T21:02:55.020Z,99865.84
2022-10-23T21:05:24.303Z,99856.09
2022-10-23T21:07:51.930Z,99869.88
2022-10-23T21:10:19.875Z,99867.19
2022-10-23T21:12:47.509Z,99861.81
2022-10-23T21:15:15.397Z,99856.63
2022-10-23T21:17:43.093Z,99850.38
2022-10-23T21:20:11.616Z,99851.56
2022-10-23T21:22:41.017Z,99867.81
2022-10-23T21:25:09.882Z,99871.38
2022-10-23T21:27:37.563Z,99871.53
2022-10-23T21:30:06.218Z,99881.44
2022-10-23T21:32:33.943Z,99873.53
2022-10-23T21:35:01.581Z,99881.59
2022-10-23T21:37:29.261Z,99883.44
2022-10-23T21:39:58.463Z,99877.88
2022-10-23T21:42:26.169Z,99884.44
2022-10-23T21:44:53.903Z,99883.44
2022-10-23T21:47:21.659Z,99883.44
2022-10-23T21:49:49.537Z,99887.13
2022-10-23T21:52:19.083Z,99886.13
2022-10-23T21:54:52.173Z,99883.44
2022-10-23T21:57:21.743Z,99880.91
2022-10-23T21:59:49.878Z,99881.75
2022-10-23T22:02:18.017Z,99874.72
2022-10-23T22:04:45.893Z,99869.50
2022-10-23T22:07:14.996Z,99879.41
2022-10-23T22:09:43.979Z,99883.09
2022-10-23T22:12:12.843Z,99881.59
2022-10-23T22:14:42.572Z,99879.06
2022-10-23T22:17:10.359Z,99874.88
2022-10-23T22:19:38.131Z,99871.31
2022-10-23T22:22:05.952Z,99875.03
2022-10-23T22:24:33.889Z,99872.34
2022-10-23T22:27:01.709Z,99877.72
2022-10-23T22:29:30.918Z,99872.34
2022-10-23T22:32:00.034Z,99873.19
2022-10-23T22:37:18.019Z,99875.88
2022-10-23T22:39:45.766Z,99875.03
2022-10-23T22:42:13.436Z,99884.94
2022-10-23T22:44:41.143Z,99878.69
2022-10-23T22:47:10.298Z,99878.88
2022-10-23T22:49:38.334Z,99872.84
2022-10-23T22:52:06.084Z,99876.69
2022-10-23T22:54:34.052Z,99878.88
2022-10-23T22:57:01.785Z,99884.56
2022-10-23T22:59:29.602Z,99899.13
2022-10-23T23:01:57.527Z,99877.47
2022-10-23T23:04:43.102Z,99880.66
2022-10-23T23:07:12.415Z,99877.13
2022-10-23T23:09:41.989Z,99888.16
2022-10-23T23:12:11.656Z,99888.66
2022-10-23T23:14:39.825Z,99892.66
2022-10-23T23:17:08.726Z,99887.81
2022-10-23T23:19:38.115Z,99889.97
2022-10-23T23:22:06.112Z,99884.34
2022-10-23T23:24:34.210Z,99881.50
2022-10-23T23:27:02.028Z,99888.00
2022-10-23T23:29:30.039Z,99885.78
2022-10-23T23:31:57.886Z,99891.66
2022-10-23T23:34:25.613Z,99886.78
2022-10-23T23:36:54.672Z,99889.31
2022-10-23T23:39:22.505Z,99885.59
2022-10-23T23:41:50.336Z,99885.31
2022-10-23T23:44:18.514Z,99888.31
2022-10-23T23:46:46.215Z,99888.84
2022-10-23T23:49:13.882Z,99889.38
2022-10-23T23:51:41.946Z,99886.34
2022-10-23T23:54:11.441Z,99885.38
2022-10-23T23:56:39.173Z,99893.06
2022-10-23T23:59:07.069Z,99891.97
